createdAt,value
2018-01-24T00:00:19.723Z,1017.56
2018-01-24T00:01:19.701Z,1017.51
2018-01-24T00:02:19.678Z,1017.49
2018-01-24T00:03:19.655Z,1017.48
2018-01-24T00:04:19.633Z,1017.41
2018-01-24T00:05:19.613Z,1017.37
2018-01-24T00:06:19.588Z,1017.38
2018-01-24T00:07:19.565Z,1017.31
2018-01-24T00:08:19.543Z,1017.25
2018-01-24T00:09:19.521Z,1017.24
2018-01-24T00:10:19.498Z,1017.29
2018-01-24T00:11:19.476Z,1017.24
2018-01-24T00:12:19.454Z,1017.22
2018-01-24T00:13:19.431Z,1017.26
2018-01-24T00:14:19.409Z,1017.31
2018-01-24T00:15:19.387Z,1017.28
2018-01-24T00:16:19.365Z,1017.25
2018-01-24T00:17:19.343Z,1017.28
2018-01-24T00:18:19.320Z,1017.34
2018-01-24T00:19:19.297Z,1017.32
2018-01-24T00:20:19.275Z,1017.36
2018-01-24T00:21:19.254Z,1017.38
2018-01-24T00:22:19.230Z,1017.43
2018-01-24T00:23:19.208Z,1017.40
2018-01-24T00:24:19.186Z,1017.43
2018-01-24T00:25:19.164Z,1017.44
2018-01-24T00:26:19.144Z,1017.45
2018-01-24T00:27:19.119Z,1017.45
2018-01-24T00:28:19.097Z,1017.50
2018-01-24T00:29:19.075Z,1017.49
2018-01-24T00:30:19.052Z,1017.54
2018-01-24T00:31:19.031Z,1017.53
2018-01-24T00:32:19.009Z,1017.53
2018-01-24T00:33:18.988Z,1017.51
2018-01-24T00:34:18.966Z,1017.55
2018-01-24T00:35:18.944Z,1017.53
2018-01-24T00:36:18.923Z,1017.52
2018-01-24T00:37:18.901Z,1017.54
2018-01-24T00:38:18.881Z,1017.55
2018-01-24T00:39:18.860Z,1017.56
2018-01-24T00:40:18.838Z,1017.57
2018-01-24T00:41:18.818Z,1017.57
2018-01-24T00:42:18.794Z,1017.56
2018-01-24T00:43:18.775Z,1017.57
2018-01-24T00:44:18.754Z,1017.57
2018-01-24T00:45:18.733Z,1017.52
2018-01-24T00:46:18.711Z,1017.56
2018-01-24T00:47:18.691Z,1017.58
2018-01-24T00:48:18.668Z,1017.63
2018-01-24T00:49:18.646Z,1017.61
2018-01-24T00:50:18.627Z,1017.51
2018-01-24T00:51:18.603Z,1017.55
2018-01-24T00:52:18.583Z,1017.57
2018-01-24T00:53:18.561Z,1017.54
2018-01-24T00:54:18.539Z,1017.50
2018-01-24T00:55:18.518Z,1017.48
2018-01-24T00:56:18.497Z,1017.48
2018-01-24T00:57:18.476Z,1017.47
2018-01-24T00:58:18.453Z,1017.47
2018-01-24T00:59:18.432Z,1017.45
2018-01-24T01:00:18.410Z,1017.43
2018-01-24T01:01:18.387Z,1017.46
2018-01-24T01:02:18.366Z,1017.40
2018-01-24T01:03:18.344Z,1017.48
2018-01-24T01:04:18.322Z,1017.46
2018-01-24T01:05:18.301Z,1017.41
2018-01-24T01:06:18.278Z,1017.39
2018-01-24T01:07:18.257Z,1017.39
2018-01-24T01:08:18.236Z,1017.36
2018-01-24T01:09:18.214Z,1017.36
2018-01-24T01:10:18.190Z,1017.37
2018-01-24T01:11:18.169Z,1017.38
2018-01-24T01:12:18.149Z,1017.40
2018-01-24T01:13:18.125Z,1017.36
2018-01-24T01:14:18.103Z,1017.42
2018-01-24T01:15:18.083Z,1017.44
2018-01-24T01:16:18.060Z,1017.47
2018-01-24T01:17:18.039Z,1017.44
2018-01-24T01:18:18.015Z,1017.53
2018-01-24T01:19:17.994Z,1017.48
2018-01-24T01:20:17.973Z,1017.54
2018-01-24T01:21:17.951Z,1017.46
2018-01-24T01:22:17.928Z,1017.54
2018-01-24T01:23:17.907Z,1017.56
2018-01-24T01:24:17.891Z,1017.61
2018-01-24T01:25:17.863Z,1017.54
2018-01-24T01:26:17.839Z,1017.61
2018-01-24T01:27:17.818Z,1017.63
2018-01-24T01:28:17.797Z,1017.62
2018-01-24T01:29:17.776Z,1017.58
2018-01-24T01:30:17.752Z,1017.58
2018-01-24T01:31:17.731Z,1017.62
2018-01-24T01:32:17.708Z,1017.63
2018-01-24T01:33:17.687Z,1017.69
2018-01-24T01:34:17.666Z,1017.69
2018-01-24T01:35:17.643Z,1017.66
2018-01-24T01:36:17.621Z,1017.67
2018-01-24T01:37:17.600Z,1017.71
2018-01-24T01:38:17.577Z,1017.68
2018-01-24T01:39:17.556Z,1017.67
2018-01-24T01:40:17.534Z,1017.65
2018-01-24T01:41:17.512Z,1017.68
2018-01-24T01:42:17.489Z,1017.64
2018-01-24T01:43:17.468Z,1017.59
2018-01-24T01:44:17.448Z,1017.57
2018-01-24T01:45:17.423Z,1017.56
2018-01-24T01:46:17.401Z,1017.58
2018-01-24T01:47:17.380Z,1017.55
2018-01-24T01:48:17.358Z,1017.56
2018-01-24T01:49:17.339Z,1017.57
2018-01-24T01:50:17.315Z,1017.58
2018-01-24T01:51:17.293Z,1017.59
2018-01-24T01:52:17.270Z,1017.56
2018-01-24T01:53:17.248Z,1017.64
2018-01-24T01:54:17.226Z,1017.60
2018-01-24T01:55:17.207Z,1017.57
2018-01-24T01:56:17.183Z,1017.58
2018-01-24T01:57:17.161Z,1017.59
2018-01-24T01:58:17.139Z,1017.56
2018-01-24T01:59:17.123Z,1017.57
2018-01-24T02:00:17.095Z,1017.54
2018-01-24T02:01:17.077Z,1017.53
2018-01-24T02:02:17.051Z,1017.53
2018-01-24T02:03:17.030Z,1017.57
2018-01-24T02:04:17.008Z,1017.54
2018-01-24T02:05:16.985Z,1017.55
2018-01-24T02:06:16.964Z,1017.56
2018-01-24T02:07:16.944Z,1017.49
2018-01-24T02:08:16.921Z,1017.45
2018-01-24T02:09:16.899Z,1017.46
2018-01-24T02:10:16.875Z,1017.48
2018-01-24T02:11:16.854Z,1017.46
2018-01-24T02:12:16.833Z,1017.44
2018-01-24T02:13:16.810Z,1017.45
2018-01-24T02:14:16.790Z,1017.44
2018-01-24T02:15:16.767Z,1017.43
2018-01-24T02:16:16.745Z,1017.40
2018-01-24T02:17:16.724Z,1017.42
2018-01-24T02:18:16.700Z,1017.47
2018-01-24T02:19:16.680Z,1017.43
2018-01-24T02:20:16.656Z,1017.40
2018-01-24T02:21:16.636Z,1017.40
2018-01-24T02:22:16.612Z,1017.41
2018-01-24T02:23:16.591Z,1017.42
2018-01-24T02:24:16.573Z,1017.39
2018-01-24T02:25:16.548Z,1017.46
2018-01-24T02:26:16.524Z,1017.44
2018-01-24T02:27:16.503Z,1017.44
2018-01-24T02:28:16.483Z,1017.48
2018-01-24T02:29:16.459Z,1017.48
2018-01-24T02:30:16.439Z,1017.43
2018-01-24T02:31:16.417Z,1017.44
2018-01-24T02:32:16.395Z,1017.36
2018-01-24T02:33:16.373Z,1017.38
2018-01-24T02:34:16.351Z,1017.39
2018-01-24T02:35:16.328Z,1017.36
2018-01-24T02:36:16.306Z,1017.38
2018-01-24T02:37:16.284Z,1017.38
2018-01-24T02:38:16.263Z,1017.37
2018-01-24T02:39:16.239Z,1017.37
2018-01-24T02:40:16.218Z,1017.36
2018-01-24T02:41:16.197Z,1017.37
2018-01-24T02:42:16.173Z,1017.34
2018-01-24T02:43:16.152Z,1017.33
2018-01-24T02:44:16.131Z,1017.32
2018-01-24T02:45:16.108Z,1017.25
2018-01-24T02:46:16.086Z,1017.27
2018-01-24T02:47:16.064Z,1017.24
2018-01-24T02:48:16.042Z,1017.22
2018-01-24T02:49:16.019Z,1017.25
2018-01-24T02:50:15.998Z,1017.22
2018-01-24T02:51:15.976Z,1017.21
2018-01-24T02:52:15.953Z,1017.21
2018-01-24T02:53:15.930Z,1017.17
2018-01-24T02:54:15.909Z,1017.19
2018-01-24T02:55:15.887Z,1017.22
2018-01-24T02:56:15.866Z,1017.18
2018-01-24T02:57:15.843Z,1017.20
2018-01-24T02:58:15.833Z,1017.15
2018-01-24T02:59:15.802Z,1017.14
2018-01-24T03:00:15.777Z,1017.13
2018-01-24T03:01:15.755Z,1017.12
2018-01-24T03:02:15.733Z,1017.11
2018-01-24T03:03:15.710Z,1017.10
2018-01-24T03:04:15.689Z,1017.09
2018-01-24T03:05:15.665Z,1017.10
2018-01-24T03:06:15.644Z,1017.07
2018-01-24T03:07:15.623Z,1017.05
2018-01-24T03:08:15.600Z,1017.03
2018-01-24T03:09:15.578Z,1017.06
2018-01-24T03:10:15.553Z,1017.07
2018-01-24T03:11:15.534Z,1017.06
2018-01-24T03:12:15.511Z,1017.08
2018-01-24T03:13:15.489Z,1017.03
2018-01-24T03:14:15.466Z,1017.03
2018-01-24T03:15:15.444Z,1017.02
2018-01-24T03:16:15.424Z,1016.99
2018-01-24T03:17:15.400Z,1017.03
2018-01-24T03:18:15.377Z,1016.97
2018-01-24T03:19:15.356Z,1017.01
2018-01-24T03:20:15.334Z,1016.99
2018-01-24T03:21:15.367Z,1017.00
2018-01-24T03:22:15.290Z,1017.01
2018-01-24T03:23:15.268Z,1016.99
2018-01-24T03:24:15.246Z,1016.98
2018-01-24T03:25:15.222Z,1016.98
2018-01-24T03:26:15.201Z,1016.97
2018-01-24T03:27:15.179Z,1016.98
2018-01-24T03:28:15.157Z,1016.99
2018-01-24T03:29:15.136Z,1016.99
2018-01-24T03:30:15.114Z,1016.99
2018-01-24T03:31:15.092Z,1017.02
2018-01-24T03:32:15.069Z,1017.01
2018-01-24T03:33:15.048Z,1016.98
2018-01-24T03:34:15.025Z,1017.02
2018-01-24T03:35:15.003Z,1016.99
2018-01-24T03:36:14.981Z,1016.99
2018-01-24T03:37:14.959Z,1016.96
2018-01-24T03:38:14.937Z,1016.94
2018-01-24T03:39:14.914Z,1016.93
2018-01-24T03:40:14.892Z,1016.93
2018-01-24T03:41:14.869Z,1016.92
2018-01-24T03:42:14.846Z,1016.96
2018-01-24T03:43:14.827Z,1016.93
2018-01-24T03:44:14.802Z,1016.90
2018-01-24T03:45:14.781Z,1016.91
2018-01-24T03:46:14.759Z,1016.86
2018-01-24T03:47:14.737Z,1016.87
2018-01-24T03:48:14.715Z,1016.87
2018-01-24T03:49:14.693Z,1016.86
2018-01-24T03:50:14.670Z,1016.89
2018-01-24T03:51:14.648Z,1016.88
2018-01-24T03:52:14.661Z,1016.88
2018-01-24T03:53:14.603Z,1016.86
2018-01-24T03:54:14.580Z,1016.86
2018-01-24T03:55:14.557Z,1016.86
2018-01-24T03:56:14.536Z,1016.86
2018-01-24T03:57:14.514Z,1016.85
2018-01-24T03:58:14.490Z,1016.83
2018-01-24T03:59:14.471Z,1016.86
2018-01-24T04:00:14.446Z,1016.83
2018-01-24T04:01:14.423Z,1016.82
2018-01-24T04:02:14.400Z,1016.83
2018-01-24T04:03:14.380Z,1016.82
2018-01-24T04:04:14.357Z,1016.79
2018-01-24T04:05:14.335Z,1016.77
2018-01-24T04:06:14.313Z,1016.81
2018-01-24T04:07:14.290Z,1016.82
2018-01-24T04:08:14.267Z,1016.79
2018-01-24T04:09:14.245Z,1016.76
2018-01-24T04:10:14.221Z,1016.78
2018-01-24T04:11:14.200Z,1016.77
2018-01-24T04:12:14.179Z,1016.81
2018-01-24T04:13:14.159Z,1016.78
2018-01-24T04:14:14.134Z,1016.79
2018-01-24T04:15:14.113Z,1016.77
2018-01-24T04:16:14.090Z,1016.78
2018-01-24T04:17:14.069Z,1016.82
2018-01-24T04:18:14.044Z,1016.74
2018-01-24T04:19:14.023Z,1016.77
2018-01-24T04:20:14.001Z,1016.76
2018-01-24T04:21:13.978Z,1016.77
2018-01-24T04:22:13.955Z,1016.77
2018-01-24T04:23:13.934Z,1016.72
2018-01-24T04:24:13.911Z,1016.71
2018-01-24T04:25:13.888Z,1016.69
2018-01-24T04:26:13.867Z,1016.70
2018-01-24T04:27:13.843Z,1016.68
2018-01-24T04:28:13.822Z,1016.68
2018-01-24T04:29:13.799Z,1016.72
2018-01-24T04:30:13.776Z,1016.70
2018-01-24T04:31:13.754Z,1016.68
2018-01-24T04:32:13.731Z,1016.68
2018-01-24T04:33:13.709Z,1016.67
2018-01-24T04:34:13.686Z,1016.67
2018-01-24T04:35:13.664Z,1016.69
2018-01-24T04:36:13.643Z,1016.68
2018-01-24T04:37:13.620Z,1016.69
2018-01-24T04:38:13.598Z,1016.69
2018-01-24T04:39:13.576Z,1016.66
2018-01-24T04:40:13.553Z,1016.63
2018-01-24T04:41:13.532Z,1016.59
2018-01-24T04:42:13.509Z,1016.62
2018-01-24T04:43:13.488Z,1016.63
2018-01-24T04:44:13.465Z,1016.61
2018-01-24T04:45:13.443Z,1016.63
2018-01-24T04:46:13.420Z,1016.56
2018-01-24T04:47:13.398Z,1016.56
2018-01-24T04:48:13.376Z,1016.54
2018-01-24T04:49:13.354Z,1016.64
2018-01-24T04:50:13.331Z,1016.63
2018-01-24T04:51:13.309Z,1016.58
2018-01-24T04:52:13.287Z,1016.57
2018-01-24T04:53:13.264Z,1016.59
2018-01-24T04:54:13.240Z,1016.55
2018-01-24T04:55:13.222Z,1016.57
2018-01-24T04:56:13.196Z,1016.54
2018-01-24T04:57:13.174Z,1016.56
2018-01-24T04:58:13.151Z,1016.59
2018-01-24T04:59:13.130Z,1016.50
2018-01-24T05:00:13.107Z,1016.52
2018-01-24T05:01:13.085Z,1016.52
2018-01-24T05:02:13.063Z,1016.56
2018-01-24T05:03:13.040Z,1016.52
2018-01-24T05:04:13.018Z,1016.52
2018-01-24T05:05:12.999Z,1016.49
2018-01-24T05:06:12.972Z,1016.51
2018-01-24T05:07:12.952Z,1016.51
2018-01-24T05:08:12.930Z,1016.43
2018-01-24T05:09:12.908Z,1016.41
2018-01-24T05:10:12.885Z,1016.41
2018-01-24T05:11:12.863Z,1016.41
2018-01-24T05:12:12.842Z,1016.37
2018-01-24T05:13:12.819Z,1016.38
2018-01-24T05:14:12.796Z,1016.35
2018-01-24T05:15:12.774Z,1016.30
2018-01-24T05:16:12.752Z,1016.31
2018-01-24T05:17:12.729Z,1016.35
2018-01-24T05:18:12.705Z,1016.30
2018-01-24T05:19:12.684Z,1016.31
2018-01-24T05:20:12.662Z,1016.30
2018-01-24T05:21:12.638Z,1016.30
2018-01-24T05:22:12.621Z,1016.33
2018-01-24T05:23:12.594Z,1016.36
2018-01-24T05:24:12.573Z,1016.35
2018-01-24T05:25:12.549Z,1016.37
2018-01-24T05:26:12.531Z,1016.33
2018-01-24T05:27:12.504Z,1016.34
2018-01-24T05:28:12.483Z,1016.38
2018-01-24T05:29:12.461Z,1016.41
2018-01-24T05:30:12.439Z,1016.36
2018-01-24T05:31:12.417Z,1016.32
2018-01-24T05:32:12.395Z,1016.31
2018-01-24T05:33:12.372Z,1016.29
2018-01-24T05:34:12.350Z,1016.22
2018-01-24T05:35:12.328Z,1016.22
2018-01-24T05:36:12.306Z,1016.23
2018-01-24T05:37:12.284Z,1016.26
2018-01-24T05:38:12.261Z,1016.22
2018-01-24T05:39:12.240Z,1016.20
2018-01-24T05:40:12.218Z,1016.18
2018-01-24T05:41:12.195Z,1016.18
2018-01-24T05:42:12.172Z,1016.19
2018-01-24T05:43:12.150Z,1016.08
2018-01-24T05:44:12.128Z,1016.14
2018-01-24T05:45:12.106Z,1016.08
2018-01-24T05:46:12.083Z,1016.06
2018-01-24T05:47:12.076Z,1016.09
2018-01-24T05:48:12.037Z,1016.11
2018-01-24T05:49:12.015Z,1016.09
2018-01-24T05:50:11.993Z,1016.08
2018-01-24T05:51:11.971Z,1016.10
2018-01-24T05:52:11.948Z,1016.18
2018-01-24T05:53:11.925Z,1016.11
2018-01-24T05:54:11.902Z,1016.13
2018-01-24T05:55:11.880Z,1016.09
2018-01-24T05:56:11.858Z,1016.08
2018-01-24T05:57:11.835Z,1016.07
2018-01-24T05:58:11.812Z,1016.10
2018-01-24T05:59:11.790Z,1016.10
2018-01-24T06:00:11.767Z,1016.03
2018-01-24T06:01:11.744Z,1016.10
2018-01-24T06:02:11.722Z,1016.02
2018-01-24T06:03:11.698Z,1016.05
2018-01-24T06:04:11.676Z,1016.02
2018-01-24T06:05:11.674Z,1015.96
2018-01-24T06:06:11.631Z,1016.01
2018-01-24T06:07:11.609Z,1016.02
2018-01-24T06:08:11.586Z,1016.06
2018-01-24T06:09:11.564Z,1016.01
2018-01-24T06:10:11.540Z,1016.05
2018-01-24T06:11:11.518Z,1016.06
2018-01-24T06:12:11.496Z,1016.03
2018-01-24T06:13:11.473Z,1015.99
2018-01-24T06:14:11.451Z,1015.98
2018-01-24T06:15:11.426Z,1015.96
2018-01-24T06:16:11.405Z,1015.97
2018-01-24T06:17:11.384Z,1015.96
2018-01-24T06:18:11.360Z,1015.93
2018-01-24T06:19:11.336Z,1015.93
2018-01-24T06:20:11.314Z,1015.95
2018-01-24T06:21:11.293Z,1015.91
2018-01-24T06:22:11.269Z,1015.93
2018-01-24T06:23:11.245Z,1015.86
2018-01-24T06:24:11.223Z,1015.91
2018-01-24T06:25:11.201Z,1015.89
2018-01-24T06:26:11.178Z,1015.92
2018-01-24T06:27:11.156Z,1015.89
2018-01-24T06:28:11.133Z,1015.90
2018-01-24T06:29:11.109Z,1015.92
2018-01-24T06:30:11.088Z,1015.96
2018-01-24T06:31:11.064Z,1015.95
2018-01-24T06:32:11.094Z,1015.90
2018-01-24T06:33:11.021Z,1015.93
2018-01-24T06:34:10.997Z,1016.01
2018-01-24T06:35:10.995Z,1015.87
2018-01-24T06:36:10.951Z,1015.86
2018-01-24T06:37:10.929Z,1015.86
2018-01-24T06:38:10.906Z,1015.84
2018-01-24T06:39:10.884Z,1015.87
2018-01-24T06:40:10.862Z,1015.82
2018-01-24T06:41:10.839Z,1015.90
2018-01-24T06:42:10.816Z,1015.88
2018-01-24T06:43:10.794Z,1015.92
2018-01-24T06:44:10.772Z,1015.92
2018-01-24T06:45:10.749Z,1015.95
2018-01-24T06:46:10.725Z,1015.91
2018-01-24T06:47:10.704Z,1015.87
2018-01-24T06:48:10.680Z,1015.84
2018-01-24T06:49:10.660Z,1015.87
2018-01-24T06:50:10.636Z,1015.81
2018-01-24T06:51:10.613Z,1015.85
2018-01-24T06:52:10.592Z,1015.86
2018-01-24T06:53:10.569Z,1015.81
2018-01-24T06:54:10.545Z,1015.83
2018-01-24T06:55:10.522Z,1015.73
2018-01-24T06:56:10.501Z,1015.74
2018-01-24T06:57:10.479Z,1015.71
2018-01-24T06:58:10.455Z,1015.74
2018-01-24T06:59:10.433Z,1015.72
2018-01-24T07:00:10.411Z,1015.77
2018-01-24T07:01:10.388Z,1015.70
2018-01-24T07:02:10.365Z,1015.76
2018-01-24T07:03:10.342Z,1015.69
2018-01-24T07:04:10.320Z,1015.71
2018-01-24T07:05:10.296Z,1015.74
2018-01-24T07:06:10.273Z,1015.69
2018-01-24T07:07:10.252Z,1015.68
2018-01-24T07:08:10.228Z,1015.65
2018-01-24T07:09:10.206Z,1015.66
2018-01-24T07:10:10.183Z,1015.66
2018-01-24T07:11:10.161Z,1015.68
2018-01-24T07:12:10.138Z,1015.66
2018-01-24T07:13:10.117Z,1015.65
2018-01-24T07:14:10.097Z,1015.63
2018-01-24T07:15:10.071Z,1015.62
2018-01-24T07:16:10.049Z,1015.67
2018-01-24T07:17:10.035Z,1015.63
2018-01-24T07:18:10.004Z,1015.59
2018-01-24T07:19:09.981Z,1015.60
2018-01-24T07:20:09.959Z,1015.61
2018-01-24T07:21:09.936Z,1015.62
2018-01-24T07:22:09.914Z,1015.66
2018-01-24T07:23:09.891Z,1015.58
2018-01-24T07:24:09.868Z,1015.65
2018-01-24T07:25:09.847Z,1015.64
2018-01-24T07:26:09.824Z,1015.56
2018-01-24T07:27:09.802Z,1015.62
2018-01-24T07:28:09.779Z,1015.55
2018-01-24T07:29:09.757Z,1015.54
2018-01-24T07:30:09.732Z,1015.56
2018-01-24T07:31:09.711Z,1015.52
2018-01-24T07:32:09.689Z,1015.52
2018-01-24T07:33:09.667Z,1015.50
2018-01-24T07:34:09.643Z,1015.56
2018-01-24T07:35:09.621Z,1015.51
2018-01-24T07:36:09.599Z,1015.54
2018-01-24T07:37:09.577Z,1015.57
2018-01-24T07:38:09.553Z,1015.59
2018-01-24T07:39:09.532Z,1015.51
2018-01-24T07:40:09.509Z,1015.53
2018-01-24T07:41:09.487Z,1015.52
2018-01-24T07:42:09.463Z,1015.50
2018-01-24T07:43:09.440Z,1015.54
2018-01-24T07:44:09.419Z,1015.50
2018-01-24T07:45:09.397Z,1015.57
2018-01-24T07:46:09.374Z,1015.55
2018-01-24T07:47:09.351Z,1015.53
2018-01-24T07:48:09.328Z,1015.47
2018-01-24T07:49:09.307Z,1015.45
2018-01-24T07:50:09.284Z,1015.48
2018-01-24T07:51:09.262Z,1015.50
2018-01-24T07:52:09.238Z,1015.51
2018-01-24T07:53:09.216Z,1015.50
2018-01-24T07:54:09.194Z,1015.52
2018-01-24T07:55:09.172Z,1015.47
2018-01-24T07:56:09.149Z,1015.44
2018-01-24T07:57:09.126Z,1015.43
2018-01-24T07:58:09.103Z,1015.35
2018-01-24T07:59:09.083Z,1015.43
2018-01-24T08:00:09.058Z,1015.37
2018-01-24T08:01:09.038Z,1015.37
2018-01-24T08:02:09.014Z,1015.37
2018-01-24T08:03:09.005Z,1015.43
2018-01-24T08:04:08.969Z,1015.39
2018-01-24T08:05:08.946Z,1015.36
2018-01-24T08:06:08.924Z,1015.37
2018-01-24T08:07:08.902Z,1015.40
2018-01-24T08:08:08.879Z,1015.38
2018-01-24T08:09:08.856Z,1015.38
2018-01-24T08:10:08.834Z,1015.44
2018-01-24T08:11:08.812Z,1015.36
2018-01-24T08:12:08.790Z,1015.48
2018-01-24T08:13:08.767Z,1015.38
2018-01-24T08:14:08.745Z,1015.37
2018-01-24T08:15:08.723Z,1015.42
2018-01-24T08:16:08.700Z,1015.36
2018-01-24T08:17:08.679Z,1015.36
2018-01-24T08:18:08.655Z,1015.34
2018-01-24T08:19:08.632Z,1015.35
2018-01-24T08:20:08.611Z,1015.36
2018-01-24T08:21:08.589Z,1015.31
2018-01-24T08:22:08.567Z,1015.37
2018-01-24T08:23:08.543Z,1015.37
2018-01-24T08:24:08.521Z,1015.33
2018-01-24T08:25:08.499Z,1015.37
2018-01-24T08:26:08.476Z,1015.32
2018-01-24T08:27:08.453Z,1015.32
2018-01-24T08:28:08.433Z,1015.35
2018-01-24T08:29:08.411Z,1015.36
2018-01-24T08:30:08.386Z,1015.26
2018-01-24T08:31:08.365Z,1015.30
2018-01-24T08:32:08.344Z,1015.27
2018-01-24T08:33:08.322Z,1015.28
2018-01-24T08:34:08.299Z,1015.28
2018-01-24T08:35:08.277Z,1015.20
2018-01-24T08:36:08.256Z,1015.21
2018-01-24T08:37:08.235Z,1015.19
2018-01-24T08:38:08.212Z,1015.15
2018-01-24T08:39:08.189Z,1015.08
2018-01-24T08:40:08.168Z,1015.10
2018-01-24T08:41:08.146Z,1015.07
2018-01-24T08:42:08.128Z,1015.13
2018-01-24T08:43:08.104Z,1015.14
2018-01-24T08:44:08.083Z,1015.12
2018-01-24T08:45:08.060Z,1015.15
2018-01-24T08:46:08.039Z,1015.09
2018-01-24T08:47:08.018Z,1015.17
2018-01-24T08:48:07.997Z,1015.14
2018-01-24T08:49:07.975Z,1015.17
2018-01-24T08:50:07.981Z,1015.12
2018-01-24T08:51:07.932Z,1015.20
2018-01-24T08:52:07.911Z,1015.16
2018-01-24T08:53:07.890Z,1015.15
2018-01-24T08:54:07.867Z,1015.11
2018-01-24T08:55:07.846Z,1015.07
2018-01-24T08:56:07.823Z,1015.06
2018-01-24T08:57:07.801Z,1015.00
2018-01-24T08:58:07.814Z,1014.99
2018-01-24T08:59:07.758Z,1015.01
2018-01-24T09:00:07.736Z,1015.04
2018-01-24T09:01:07.714Z,1014.95
2018-01-24T09:02:07.690Z,1014.88
2018-01-24T09:03:07.668Z,1014.91
2018-01-24T09:04:07.657Z,1014.83
2018-01-24T09:05:07.625Z,1014.89
2018-01-24T09:06:07.602Z,1014.86
2018-01-24T09:07:07.580Z,1014.79
2018-01-24T09:08:07.558Z,1014.78
2018-01-24T09:09:07.537Z,1014.78
2018-01-24T09:10:07.514Z,1014.73
2018-01-24T09:11:07.492Z,1014.73
2018-01-24T09:12:07.470Z,1014.69
2018-01-24T09:13:07.448Z,1014.72
2018-01-24T09:14:07.425Z,1014.66
2018-01-24T09:15:07.402Z,1014.71
2018-01-24T09:16:07.381Z,1014.69
2018-01-24T09:17:07.359Z,1014.70
2018-01-24T09:18:07.336Z,1014.70
2018-01-24T09:19:07.314Z,1014.69
2018-01-24T09:20:07.291Z,1014.65
2018-01-24T09:21:07.270Z,1014.72
2018-01-24T09:22:07.247Z,1014.57
2018-01-24T09:23:07.226Z,1014.60
2018-01-24T09:24:07.204Z,1014.62
2018-01-24T09:25:07.182Z,1014.64
2018-01-24T09:26:07.159Z,1014.59
2018-01-24T09:27:07.137Z,1014.50
2018-01-24T09:28:07.116Z,1014.55
2018-01-24T09:29:07.093Z,1014.56
2018-01-24T09:30:07.133Z,1014.53
2018-01-24T09:31:07.049Z,1014.61
2018-01-24T09:32:07.027Z,1014.61
2018-01-24T09:33:07.006Z,1014.57
2018-01-24T09:34:06.982Z,1014.55
2018-01-24T09:35:06.961Z,1014.55
2018-01-24T09:36:06.937Z,1014.55
2018-01-24T09:37:06.915Z,1014.49
2018-01-24T09:38:06.893Z,1014.45
2018-01-24T09:39:06.872Z,1014.50
2018-01-24T09:40:06.848Z,1014.52
2018-01-24T09:41:06.828Z,1014.48
2018-01-24T09:42:06.805Z,1014.44
2018-01-24T09:43:06.783Z,1014.48
2018-01-24T09:44:06.760Z,1014.41
2018-01-24T09:45:06.738Z,1014.35
2018-01-24T09:46:06.715Z,1014.37
2018-01-24T09:47:06.694Z,1014.33
2018-01-24T09:48:06.672Z,1014.38
2018-01-24T09:49:06.650Z,1014.27
2018-01-24T09:50:06.628Z,1014.38
2018-01-24T09:51:06.606Z,1014.30
2018-01-24T09:52:06.583Z,1014.29
2018-01-24T09:53:06.562Z,1014.28
2018-01-24T09:54:06.539Z,1014.23
2018-01-24T09:55:06.518Z,1014.22
2018-01-24T09:56:06.497Z,1014.25
2018-01-24T09:57:06.473Z,1014.25
2018-01-24T09:58:06.452Z,1014.27
2018-01-24T09:59:06.430Z,1014.25
2018-01-24T10:00:06.408Z,1014.27
2018-01-24T10:01:06.387Z,1014.22
2018-01-24T10:02:06.364Z,1014.15
2018-01-24T10:03:06.342Z,1014.15
2018-01-24T10:04:06.320Z,1014.12
2018-01-24T10:05:06.298Z,1014.13
2018-01-24T10:06:06.276Z,1014.09
2018-01-24T10:07:06.256Z,1014.16
2018-01-24T10:08:06.232Z,1014.03
2018-01-24T10:09:06.211Z,1014.01
2018-01-24T10:10:06.188Z,1013.94
2018-01-24T10:11:06.165Z,1014.05
2018-01-24T10:12:06.145Z,1014.09
2018-01-24T10:13:06.123Z,1014.05
2018-01-24T10:14:06.100Z,1013.94
2018-01-24T10:15:06.078Z,1013.99
2018-01-24T10:16:06.064Z,1013.93
2018-01-24T10:17:06.036Z,1013.87
2018-01-24T10:18:06.012Z,1013.82
2018-01-24T10:19:05.991Z,1013.82
2018-01-24T10:20:05.969Z,1013.87
2018-01-24T10:21:05.949Z,1013.73
2018-01-24T10:22:05.926Z,1013.74
2018-01-24T10:23:05.904Z,1013.67
2018-01-24T10:24:05.882Z,1013.73
2018-01-24T10:25:05.876Z,1013.81
2018-01-24T10:26:05.840Z,1013.80
2018-01-24T10:27:05.819Z,1013.85
2018-01-24T10:28:05.798Z,1013.89
2018-01-24T10:29:05.776Z,1013.92
2018-01-24T10:30:05.753Z,1014.02
2018-01-24T10:31:05.733Z,1013.96
2018-01-24T10:32:05.713Z,1013.83
2018-01-24T10:33:05.691Z,1013.81
2018-01-24T10:34:05.669Z,1013.82
2018-01-24T10:35:05.645Z,1013.97
2018-01-24T10:36:05.624Z,1013.93
2018-01-24T10:37:05.602Z,1013.90
2018-01-24T10:38:05.581Z,1013.90
2018-01-24T10:39:05.558Z,1013.91
2018-01-24T10:40:05.536Z,1013.85
2018-01-24T10:41:05.516Z,1013.80
2018-01-24T10:42:05.493Z,1013.68
2018-01-24T10:43:05.471Z,1013.77
2018-01-24T10:44:05.448Z,1013.71
2018-01-24T10:45:05.427Z,1013.70
2018-01-24T10:46:05.405Z,1013.76
2018-01-24T10:47:05.382Z,1013.73
2018-01-24T10:48:05.361Z,1013.79
2018-01-24T10:49:05.339Z,1013.71
2018-01-24T10:50:05.320Z,1013.70
2018-01-24T10:51:05.298Z,1013.64
2018-01-24T10:52:05.273Z,1013.70
2018-01-24T10:53:05.251Z,1013.70
2018-01-24T10:54:05.227Z,1013.65
2018-01-24T10:55:05.207Z,1013.59
2018-01-24T10:56:05.184Z,1013.54
2018-01-24T10:57:05.164Z,1013.60
2018-01-24T10:58:05.141Z,1013.57
2018-01-24T10:59:05.119Z,1013.50
2018-01-24T11:00:05.098Z,1013.57
2018-01-24T11:01:05.076Z,1013.55
2018-01-24T11:02:05.054Z,1013.53
2018-01-24T11:03:05.032Z,1013.52
2018-01-24T11:04:05.009Z,1013.42
2018-01-24T11:05:04.990Z,1013.45
2018-01-24T11:06:04.967Z,1013.41
2018-01-24T11:07:04.944Z,1013.39
2018-01-24T11:08:04.923Z,1013.43
2018-01-24T11:09:04.903Z,1013.46
2018-01-24T11:10:04.883Z,1013.41
2018-01-24T11:11:04.858Z,1013.35
2018-01-24T11:12:04.840Z,1013.30
2018-01-24T11:13:04.815Z,1013.27
2018-01-24T11:14:04.798Z,1013.26
2018-01-24T11:15:04.771Z,1013.24
2018-01-24T11:16:04.750Z,1013.27
2018-01-24T11:17:04.727Z,1013.23
2018-01-24T11:18:04.704Z,1013.15
2018-01-24T11:19:04.682Z,1013.22
2018-01-24T11:20:04.660Z,1013.20
2018-01-24T11:21:04.639Z,1013.13
2018-01-24T11:22:04.618Z,1013.12
2018-01-24T11:23:04.595Z,1013.15
2018-01-24T11:24:04.574Z,1013.09
2018-01-24T11:25:04.552Z,1013.08
2018-01-24T11:26:04.529Z,1013.02
2018-01-24T11:27:04.510Z,1013.01
2018-01-24T11:28:04.486Z,1013.07
2018-01-24T11:29:04.464Z,1013.00
2018-01-24T11:30:04.445Z,1013.00
2018-01-24T11:31:04.421Z,1013.07
2018-01-24T11:32:04.400Z,1013.04
2018-01-24T11:33:04.378Z,1012.98
2018-01-24T11:34:04.354Z,1013.02
2018-01-24T11:35:04.334Z,1013.01
2018-01-24T11:36:04.313Z,1012.98
2018-01-24T11:37:04.290Z,1012.89
2018-01-24T11:38:04.269Z,1012.97
2018-01-24T11:39:04.246Z,1012.96
2018-01-24T11:40:04.226Z,1012.83
2018-01-24T11:41:04.204Z,1012.84
2018-01-24T11:42:04.180Z,1012.96
2018-01-24T11:43:04.160Z,1012.95
2018-01-24T11:44:04.139Z,1012.88
2018-01-24T11:45:04.116Z,1012.82
2018-01-24T11:46:04.094Z,1012.81
2018-01-24T11:47:04.072Z,1012.78
2018-01-24T11:48:04.052Z,1012.73
2018-01-24T11:49:04.030Z,1012.75
2018-01-24T11:50:04.007Z,1012.71
2018-01-24T11:51:03.986Z,1012.78
2018-01-24T11:52:03.963Z,1012.73
2018-01-24T11:53:03.943Z,1012.67
2018-01-24T11:54:03.922Z,1012.71
2018-01-24T11:55:03.899Z,1012.66
2018-01-24T11:56:03.877Z,1012.63
2018-01-24T11:57:03.855Z,1012.54
2018-01-24T11:58:03.833Z,1012.50
2018-01-24T11:59:03.812Z,1012.53
2018-01-24T12:00:03.792Z,1012.52
2018-01-24T12:01:03.769Z,1012.43
2018-01-24T12:02:03.746Z,1012.47
2018-01-24T12:03:03.725Z,1012.41
2018-01-24T12:04:03.703Z,1012.44
2018-01-24T12:05:03.682Z,1012.50